Time,TemperatureF,DewpointF,PressureIn,WindDirection,WindDirectionDegrees,WindSpeedMPH,WindSpeedGustMPH,Humidity,HourlyPrecipIn,Conditions,Clouds,dailyrainin,SoftwareType,DateUTC
2013-04-10 00:06:00,62.6,56.0,29.94,West,262,0.0,-999.0,78,-99.99,,,0.00,weatherlink.com 1.10,2013-04-10 04:06:00,
2013-04-10 00:21:00,62.9,56.0,29.94,West,262,0.0,-999.0,77,-99.99,,,0.00,weatherlink.com 1.10,2013-04-10 04:21:00,
2013-04-10 00:36:00,62.3,56.0,29.94,West,262,0.0,-999.0,79,-99.99,,,0.00,weatherlink.com 1.10,2013-04-10 04:36:00,
2013-04-10 00:51:00,61.8,56.0,29.95,West,262,0.0,-999.0,80,-99.99,,,0.00,weatherlink.com 1.10,2013-04-10 04:51:00,
2013-04-10 01:06:00,61.5,56.0,29.95,West,262,0.0,-999.0,81,-99.99,,,0.00,weatherlink.com 1.10,2013-04-10 05:06:00,
2013-04-10 01:21:00,61.3,55.0,29.95,West,262,0.0,-999.0,81,-99.99,,,0.00,weatherlink.com 1.10,2013-04-10 05:21:00,
2013-04-10 01:36:00,60.9,55.0,29.95,West,262,0.0,-999.0,82,-99.99,,,0.00,weatherlink.com 1.10,2013-04-10 05:36:00,
2013-04-10 01:51:00,60.7,55.0,29.95,West,262,0.0,-999.0,82,-99.99,,,0.00,weatherlink.com 1.10,2013-04-10 05:51:00,
2013-04-10 02:21:00,60.8,55.0,29.94,West,262,0.0,-999.0,82,-99.99,,,0.00,weatherlink.com 1.10,2013-04-10 06:21:00,
2013-04-10 02:51:00,61.4,56.0,29.93,West,262,0.0,-999.0,82,-99.99,,,0.00,weatherlink.com 1.10,2013-04-10 06:51:00,
2013-04-10 03:06:00,62.0,56.0,29.93,West,262,0.0,-999.0,80,-99.99,,,0.00,weatherlink.com 1.10,2013-04-10 07:06:00,
2013-04-10 03:21:00,62.0,55.0,29.92,West,262,0.0,-999.0,79,-99.99,,,0.00,weatherlink.com 1.10,2013-04-10 07:21:00,
2013-04-10 03:36:00,61.7,55.0,29.91,West,262,0.0,-999.0,79,-99.99,,,0.00,weatherlink.com 1.10,2013-04-10 07:36:00,
2013-04-10 03:51:00,61.7,55.0,29.91,West,262,0.0,-999.0,79,-99.99,,,0.00,weatherlink.com 1.10,2013-04-10 07:51:00,
2013-04-10 04:06:00,61.9,55.0,29.90,West,262,0.0,-999.0,78,-99.99,,,0.00,weatherlink.com 1.10,2013-04-10 08:06:00,
2013-04-10 04:21:00,62.6,55.0,29.90,ESE,103,0.0,-999.0,76,-99.99,,,0.00,weatherlink.com 1.10,2013-04-10 08:21:00,
2013-04-10 04:36:00,63.8,55.0,29.90,South,190,0.0,-999.0,74,-99.99,,,0.00,weatherlink.com 1.10,2013-04-10 08:36:00,
2013-04-10 04:51:00,64.8,55.0,29.90,South,190,0.0,-999.0,71,-99.99,,,0.00,weatherlink.com 1.10,2013-04-10 08:51:00,
2013-04-10 05:21:00,67.1,55.0,29.90,SW,217,0.0,-999.0,66,-99.99,,,0.00,weatherlink.com 1.10,2013-04-10 09:21:00,
2013-04-10 05:36:00,68.8,55.0,29.91,SW,218,0.0,-999.0,62,-99.99,,,0.00,weatherlink.com 1.10,2013-04-10 09:36:00,
2013-04-10 05:51:00,69.6,55.0,29.91,SSW,209,0.0,-999.0,60,-99.99,,,0.00,weatherlink.com 1.10,2013-04-10 09:51:00,
2013-04-10 06:06:00,69.6,55.0,29.92,South,184,2.0,-999.0,60,-99.99,,,0.00,weatherlink.com 1.10,2013-04-10 10:06:00,
2013-04-10 06:21:00,69.6,54.0,29.92,SSW,207,0.0,-999.0,59,-99.99,,,0.00,weatherlink.com 1.10,2013-04-10 10:21:00,
2013-04-10 06:36:00,69.7,55.0,29.92,SSW,197,0.0,-999.0,59,-99.99,,,0.00,weatherlink.com 1.10,2013-04-10 10:36:00,
2013-04-10 06:52:00,69.8,55.0,29.92,SSW,196,0.0,-999.0,59,-99.99,,,0.00,weatherlink.com 1.10,2013-04-10 10:52:00,
2013-04-10 07:06:00,70.2,55.0,29.92,SW,219,0.0,-999.0,59,-99.99,,,0.00,weatherlink.com 1.10,2013-04-10 11:06:00,
2013-04-10 07:21:00,70.4,55.0,29.93,SSW,197,3.0,-999.0,59,-99.99,,,0.00,weatherlink.com 1.10,2013-04-10 11:21:00,
2013-04-10 07:37:00,70.5,55.0,29.94,SSW,203,0.0,-999.0,59,-99.99,,,0.00,weatherlink.com 1.10,2013-04-10 11:37:00,
2013-04-10 07:51:00,70.8,56.0,29.94,SW,216,0.0,-999.0,59,-99.99,,,0.00,weatherlink.com 1.10,2013-04-10 11:51:00,
2013-04-10 08:07:00,71.1,55.0,29.94,SW,214,0.0,-999.0,58,-99.99,,,0.00,weatherlink.com 1.10,2013-04-10 12:07:00,
2013-04-10 08:22:00,71.4,56.0,29.94,SSW,196,1.0,-999.0,58,-99.99,,,0.00,weatherlink.com 1.10,2013-04-10 12:22:00,
2013-04-10 08:37:00,72.4,56.0,29.94,SSW,197,9.0,-999.0,57,-99.99,,,0.00,weatherlink.com 1.10,2013-04-10 12:37:00,
2013-04-10 08:52:00,73.6,57.0,29.95,WSW,247,1.0,-999.0,56,-99.99,,,0.00,weatherlink.com 1.10,2013-04-10 12:52:00,
2013-04-10 09:07:00,74.3,57.0,29.95,SSW,213,3.0,-999.0,55,-99.99,,,0.00,weatherlink.com 1.10,2013-04-10 13:07:00,
2013-04-10 09:22:00,74.2,57.0,29.95,SW,229,5.0,-999.0,56,-99.99,,,0.00,weatherlink.com 1.10,2013-04-10 13:22:00,
2013-04-10 09:37:00,75.4,58.0,29.95,SW,227,10.0,-999.0,56,-99.99,,,0.00,weatherlink.com 1.10,2013-04-10 13:37:00,
2013-04-10 09:52:00,76.0,59.0,29.96,SW,228,7.0,-999.0,56,-99.99,,,0.00,weatherlink.com 1.10,2013-04-10 13:52:00,
2013-04-10 10:07:00,76.1,59.0,29.96,West,277,7.0,-999.0,56,-99.99,,,0.00,weatherlink.com 1.10,2013-04-10 14:07:00,
2013-04-10 10:22:00,76.8,59.0,29.96,West,272,9.0,-999.0,55,-99.99,,,0.00,weatherlink.com 1.10,2013-04-10 14:22:00,
2013-04-10 10:37:00,77.2,59.0,29.96,SW,215,13.0,-999.0,54,-99.99,,,0.00,weatherlink.com 1.10,2013-04-10 14:37:00,
2013-04-10 10:52:00,77.6,61.0,29.97,WSW,252,13.0,-999.0,56,-99.99,,,0.00,weatherlink.com 1.10,2013-04-10 14:52:00,
2013-04-10 11:07:00,77.1,60.0,29.96,WNW,294,1.0,-999.0,56,-99.99,,,0.00,weatherlink.com 1.10,2013-04-10 15:07:00,
2013-04-10 11:22:00,77.9,60.0,29.96,WSW,246,12.0,-999.0,54,-99.99,,,0.00,weatherlink.com 1.10,2013-04-10 15:22:00,
2013-04-10 11:37:00,78.3,61.0,29.96,SW,233,8.0,-999.0,56,-99.99,,,0.00,weatherlink.com 1.10,2013-04-10 15:37:00,
2013-04-10 11:52:00,78.7,60.0,29.97,West,276,13.0,-999.0,53,-99.99,,,0.00,weatherlink.com 1.10,2013-04-10 15:52:00,
2013-04-10 12:07:00,79.3,60.0,29.96,West,266,11.0,-999.0,51,-99.99,,,0.00,weatherlink.com 1.10,2013-04-10 16:07:00,
2013-04-10 12:22:00,78.9,60.0,29.96,West,275,12.0,-999.0,52,-99.99,,,0.00,weatherlink.com 1.10,2013-04-10 16:22:00,
2013-04-10 12:37:00,79.4,60.0,29.95,West,270,8.0,-999.0,51,-99.99,,,0.00,weatherlink.com 1.10,2013-04-10 16:37:00,
2013-04-10 12:52:00,80.2,60.0,29.95,WNW,286,14.0,-999.0,51,-99.99,,,0.00,weatherlink.com 1.10,2013-04-10 16:52:00,
2013-04-10 13:07:00,80.8,61.0,29.95,SW,236,8.0,-999.0,51,-99.99,,,0.00,weatherlink.com 1.10,2013-04-10 17:07:00,
2013-04-10 13:22:00,81.2,61.0,29.94,SW,220,11.0,-999.0,50,-99.99,,,0.00,weatherlink.com 1.10,2013-04-10 17:22:00,
2013-04-10 13:37:00,81.1,60.0,29.94,SW,223,7.0,-999.0,49,-99.99,,,0.00,weatherlink.com 1.10,2013-04-10 17:37:00,
2013-04-10 13:52:00,81.4,59.0,29.93,WNW,294,9.0,-999.0,47,-99.99,,,0.00,weatherlink.com 1.10,2013-04-10 17:52:00,
2013-04-10 14:07:00,82.1,59.0,29.93,WNW,290,14.0,-999.0,45,-99.99,,,0.00,weatherlink.com 1.10,2013-04-10 18:07:00,
2013-04-10 14:23:00,81.9,59.0,29.93,WNW,283,4.0,-999.0,46,-99.99,,,0.00,weatherlink.com 1.10,2013-04-10 18:23:00,
2013-04-10 14:37:00,81.4,59.0,29.92,WNW,288,10.0,-999.0,47,-99.99,,,0.00,weatherlink.com 1.10,2013-04-10 18:37:00,
2013-04-10 14:52:00,82.0,61.0,29.91,West,269,8.0,-999.0,49,-99.99,,,0.00,weatherlink.com 1.10,2013-04-10 18:52:00,
2013-04-10 15:07:00,83.5,59.0,29.90,WSW,252,6.0,-999.0,44,-99.99,,,0.00,weatherlink.com 1.10,2013-04-10 19:07:00,
2013-04-10 15:22:00,84.0,58.0,29.90,South,181,5.0,-999.0,42,-99.99,,,0.00,weatherlink.com 1.10,2013-04-10 19:22:00,
2013-04-10 15:38:00,82.5,58.0,29.88,SW,229,6.0,-999.0,43,-99.99,,,0.00,weatherlink.com 1.10,2013-04-10 19:38:00,
2013-04-10 15:53:00,83.7,59.0,29.87,SW,232,13.0,-999.0,43,-99.99,,,0.00,weatherlink.com 1.10,2013-04-10 19:53:00,
2013-04-10 16:08:00,84.3,59.0,29.86,West,269,8.0,-999.0,42,-99.99,,,0.00,weatherlink.com 1.10,2013-04-10 20:08:00,
2013-04-10 16:23:00,84.0,58.0,29.84,WSW,257,5.0,-999.0,41,-99.99,,,0.00,weatherlink.com 1.10,2013-04-10 20:23:00,
2013-04-10 16:38:00,84.7,58.0,29.83,SSE,165,5.0,-999.0,41,-99.99,,,0.00,weatherlink.com 1.10,2013-04-10 20:38:00,
2013-04-10 16:53:00,85.2,57.0,29.82,West,261,5.0,-999.0,38,-99.99,,,0.00,weatherlink.com 1.10,2013-04-10 20:53:00,
2013-04-10 17:08:00,85.3,56.0,29.82,WSW,252,17.0,-999.0,37,-99.99,,,0.00,weatherlink.com 1.10,2013-04-10 21:08:00,
2013-04-10 17:23:00,85.3,56.0,29.81,WSW,250,9.0,-999.0,37,-99.99,,,0.00,weatherlink.com 1.10,2013-04-10 21:23:00,
2013-04-10 17:38:00,85.6,56.0,29.81,West,267,5.0,-999.0,36,-99.99,,,0.00,weatherlink.com 1.10,2013-04-10 21:38:00,
2013-04-10 17:53:00,85.2,56.0,29.81,WSW,245,11.0,-999.0,37,-99.99,,,0.00,weatherlink.com 1.10,2013-04-10 21:53:00,
2013-04-10 18:08:00,84.8,56.0,29.81,West,273,5.0,-999.0,37,-99.99,,,0.00,weatherlink.com 1.10,2013-04-10 22:08:00,
2013-04-10 18:23:00,84.4,55.0,29.80,SSW,205,6.0,-999.0,37,-99.99,,,0.00,weatherlink.com 1.10,2013-04-10 22:23:00,
2013-04-10 18:38:00,84.1,56.0,29.80,WSW,248,8.0,-999.0,38,-99.99,,,0.00,weatherlink.com 1.10,2013-04-10 22:38:00,
2013-04-10 18:53:00,83.9,56.0,29.79,West,259,5.0,-999.0,39,-99.99,,,0.00,weatherlink.com 1.10,2013-04-10 22:53:00,
2013-04-10 19:08:00,83.6,57.0,29.78,West,265,4.0,-999.0,40,-99.99,,,0.00,weatherlink.com 1.10,2013-04-10 23:08:00,
2013-04-10 19:23:00,83.1,56.0,29.78,WSW,257,4.0,-999.0,40,-99.99,,,0.00,weatherlink.com 1.10,2013-04-10 23:23:00,
2013-04-10 19:38:00,82.4,56.0,29.77,West,270,2.0,-999.0,41,-99.99,,,0.00,weatherlink.com 1.10,2013-04-10 23:38:00,
2013-04-10 19:53:00,81.1,56.0,29.77,West,270,0.0,-999.0,43,-99.99,,,0.00,weatherlink.com 1.10,2013-04-10 23:53:00,
2013-04-10 20:08:00,79.6,56.0,29.77,West,270,0.0,-999.0,44,-99.99,,,0.00,weatherlink.com 1.10,2013-04-11 00:08:00,
2013-04-10 20:23:00,77.5,56.0,29.76,West,270,0.0,-999.0,48,-99.99,,,0.00,weatherlink.com 1.10,2013-04-11 00:23:00,
2013-04-10 20:38:00,75.3,56.0,29.76,West,270,0.0,-999.0,51,-99.99,,,0.00,weatherlink.com 1.10,2013-04-11 00:38:00,
2013-04-10 20:53:00,73.2,56.0,29.76,West,270,0.0,-999.0,55,-99.99,,,0.00,weatherlink.com 1.10,2013-04-11 00:53:00,
2013-04-10 21:08:00,71.6,56.0,29.75,West,270,0.0,-999.0,58,-99.99,,,0.00,weatherlink.com 1.10,2013-04-11 01:08:00,
2013-04-10 21:23:00,70.1,55.0,29.75,West,270,0.0,-999.0,59,-99.99,,,0.00,weatherlink.com 1.10,2013-04-11 01:23:00,
2013-04-10 21:38:00,68.8,55.0,29.75,West,270,0.0,-999.0,62,-99.99,,,0.00,weatherlink.com 1.10,2013-04-11 01:38:00,
2013-04-10 21:53:00,67.9,55.0,29.76,West,270,0.0,-999.0,63,-99.99,,,0.00,weatherlink.com 1.10,2013-04-11 01:53:00,
2013-04-10 22:08:00,67.5,54.0,29.76,West,270,0.0,-999.0,63,-99.99,,,0.00,weatherlink.com 1.10,2013-04-11 02:08:00,
2013-04-10 22:38:00,67.4,54.0,29.75,West,270,0.0,-999.0,63,-99.99,,,0.00,weatherlink.com 1.10,2013-04-11 02:38:00,
2013-04-10 22:53:00,66.6,54.0,29.75,West,270,0.0,-999.0,64,-99.99,,,0.00,weatherlink.com 1.10,2013-04-11 02:53:00,
2013-04-10 23:38:00,65.1,55.0,29.76,West,270,0.0,-999.0,69,-99.99,,,0.00,weatherlink.com 1.10,2013-04-11 03:38:00,
2013-04-10 23:53:00,64.3,54.0,29.76,West,270,0.0,-999.0,70,-99.99,,,0.00,weatherlink.com 1.10,2013-04-11 03:53:00,